createdAt,value
2022-10-05T00:00:20.693Z,101553.88
2022-10-05T00:02:49.746Z,101556.31
2022-10-05T00:05:31.833Z,101550.28
2022-10-05T00:08:11.361Z,101532.38
2022-10-05T00:10:43.518Z,101531.97
2022-10-05T00:13:20.983Z,101525.56
2022-10-05T00:15:49.964Z,101529.94
2022-10-05T00:18:21.014Z,101534.34
2022-10-05T00:20:49.559Z,101516.81
2022-10-05T00:23:23.149Z,101512.03
2022-10-05T00:25:51.221Z,101509.66
2022-10-05T00:28:36.418Z,101514.03
2022-10-05T00:31:22.187Z,101509.31
2022-10-05T00:33:51.312Z,101519.69
2022-10-05T00:36:19.313Z,101514.47
2022-10-05T00:38:46.874Z,101500.91
2022-10-05T00:41:32.548Z,101491.38
2022-10-05T00:43:59.902Z,101502.53
2022-10-05T00:46:46.683Z,101484.19
2022-10-05T00:49:23.279Z,101479.84
2022-10-05T00:52:25.930Z,101478.63
2022-10-05T00:55:05.407Z,101483.03
2022-10-05T00:57:59.962Z,101474.25
2022-10-05T01:00:28.183Z,101475.44
2022-10-05T01:03:02.381Z,101476.22
2022-10-05T01:05:51.011Z,101473.78
2022-10-05T01:08:41.843Z,101473.78
2022-10-05T01:11:29.524Z,101474.16
2022-10-05T01:14:03.586Z,101465.00
2022-10-05T01:16:58.247Z,101469.41
2022-10-05T01:19:53.150Z,101472.19
2022-10-05T01:22:45.140Z,101457.84
2022-10-05T01:25:27.090Z,101457.84
2022-10-05T01:27:59.490Z,101464.63
2022-10-05T01:30:30.047Z,101450.31
2022-10-05T01:33:07.404Z,101446.28
2022-10-05T01:35:52.704Z,101436.75
2022-10-05T01:38:44.090Z,101430.38
2022-10-05T01:41:25.936Z,101422.00
2022-10-05T01:44:06.199Z,101414.44
2022-10-05T01:47:07.130Z,101421.19
2022-10-05T01:49:56.452Z,101416.78
2022-10-05T01:52:35.639Z,101408.84
2022-10-05T01:55:40.886Z,101418.41
2022-10-05T01:58:27.837Z,101417.97
2022-10-05T02:01:02.695Z,101419.56
2022-10-05T02:03:40.841Z,101408.44
2022-10-05T02:06:30.845Z,101409.63
2022-10-05T02:09:01.569Z,101410.03
2022-10-05T02:11:29.989Z,101406.06
2022-10-05T02:14:02.574Z,101413.63
2022-10-05T02:16:37.659Z,101408.09
2022-10-05T02:19:21.698Z,101410.06
2022-10-05T02:21:54.854Z,101408.91
2022-10-05T02:24:31.406Z,101410.88
2022-10-05T02:26:59.131Z,101415.69
2022-10-05T02:29:31.030Z,101406.53
2022-10-05T02:32:14.565Z,101407.72
2022-10-05T02:34:43.600Z,101415.28
2022-10-05T02:38:08.074Z,101413.28
2022-10-05T02:41:19.869Z,101397.78
2022-10-05T02:44:12.007Z,101403.38
2022-10-05T02:46:59.537Z,101394.59
2022-10-05T02:49:37.722Z,101391.81
2022-10-05T02:52:25.180Z,101399.38
2022-10-05T02:55:13.114Z,101393.03
2022-10-05T02:58:07.254Z,101392.63
2022-10-05T03:00:48.105Z,101386.25
2022-10-05T03:03:31.274Z,101397.78
2022-10-05T03:06:35.284Z,101395.88
2022-10-05T03:09:06.202Z,101404.25
2022-10-05T03:11:41.210Z,101395.84
2022-10-05T03:14:18.594Z,101393.00
2022-10-05T03:17:07.110Z,101387.00
2022-10-05T03:19:54.263Z,101382.19
2022-10-05T03:22:42.455Z,101371.06
2022-10-05T03:25:12.692Z,101365.84
2022-10-05T03:28:19.310Z,101370.63
2022-10-05T03:31:03.007Z,101361.09
2022-10-05T03:34:02.516Z,101365.50
2022-10-05T03:36:37.855Z,101370.28
2022-10-05T03:39:41.422Z,101355.16
2022-10-05T03:42:12.975Z,101357.94
2022-10-05T03:44:58.357Z,101360.34
2022-10-05T03:47:39.702Z,101351.97
2022-10-05T03:50:27.278Z,101356.34
2022-10-05T03:53:03.933Z,101355.16
2022-10-05T03:55:40.829Z,101357.94
2022-10-05T03:58:35.623Z,101358.34
2022-10-05T04:01:10.485Z,101350.78
2022-10-05T04:03:46.910Z,101348.41
2022-10-05T04:06:23.148Z,101342.44
2022-10-05T04:09:05.610Z,101316.97
2022-10-05T04:11:43.074Z,101320.97
2022-10-05T04:14:15.958Z,101316.56
2022-10-05T04:16:52.698Z,101320.53
2022-10-05T04:19:29.001Z,101326.91
2022-10-05T04:22:00.968Z,101309.41
2022-10-05T04:24:31.467Z,101307.81
2022-10-05T04:27:04.713Z,101317.38
2022-10-05T04:29:59.483Z,101313.00
2022-10-05T04:32:35.601Z,101308.63
2022-10-05T04:35:15.558Z,101303.03
2022-10-05T04:37:55.158Z,101299.88
2022-10-05T04:40:25.565Z,101316.16
2022-10-05T04:43:17.460Z,101293.50
2022-10-05T04:46:14.603Z,101295.50
2022-10-05T04:48:55.269Z,101286.72
2022-10-05T04:51:25.403Z,101292.31
2022-10-05T04:54:25.140Z,101294.66
2022-10-05T04:57:07.505Z,101278.34
2022-10-05T04:59:43.824Z,101288.69
2022-10-05T05:02:36.973Z,101284.31
2022-10-05T05:05:15.683Z,101280.34
2022-10-05T05:08:09.334Z,101276.38
2022-10-05T05:10:42.617Z,101275.16
2022-10-05T05:13:31.374Z,101270.81
2022-10-05T05:16:07.708Z,101268.81
2022-10-05T05:19:06.058Z,101271.97
2022-10-05T05:22:02.268Z,101271.97
2022-10-05T05:24:40.876Z,101284.72
2022-10-05T05:27:42.440Z,101289.06
2022-10-05T05:30:43.775Z,101271.94
2022-10-05T05:33:23.631Z,101262.34
2022-10-05T05:36:25.013Z,101276.28
2022-10-05T05:39:08.780Z,101267.94
2022-10-05T05:41:50.277Z,101271.13
2022-10-05T05:44:22.689Z,101274.25
2022-10-05T05:47:05.041Z,101277.09
2022-10-05T05:50:07.444Z,101264.72
2022-10-05T05:52:47.069Z,101267.16
2022-10-05T05:55:29.754Z,101260.38
2022-10-05T05:58:18.536Z,101259.56
2022-10-05T06:00:57.623Z,101256.34
2022-10-05T06:03:34.128Z,101263.16
2022-10-05T06:06:20.173Z,101256.78
2022-10-05T06:08:53.661Z,101250.00
2022-10-05T06:11:58.731Z,101259.56
2022-10-05T06:14:52.424Z,101258.41
2022-10-05T06:17:29.133Z,101257.59
2022-10-05T06:20:02.588Z,101253.25
2022-10-05T06:22:39.303Z,101260.03
2022-10-05T06:25:12.983Z,101257.63
2022-10-05T06:28:15.105Z,101260.06
2022-10-05T06:31:07.715Z,101260.88
2022-10-05T06:33:44.061Z,101265.66
2022-10-05T06:36:34.795Z,101266.47
2022-10-05T06:39:03.031Z,101265.66
2022-10-05T06:41:53.071Z,101256.91
2022-10-05T06:44:40.175Z,101251.75
2022-10-05T06:48:00.455Z,101262.53
2022-10-05T06:51:11.786Z,101255.34
2022-10-05T06:54:14.063Z,101249.38
2022-10-05T06:56:46.766Z,101247.38
2022-10-05T06:59:25.744Z,101253.81
2022-10-05T07:02:08.807Z,101260.19
2022-10-05T07:04:41.779Z,101262.19
2022-10-05T07:07:21.762Z,101256.97
2022-10-05T07:10:08.505Z,101256.63
2022-10-05T07:13:14.179Z,101253.44
2022-10-05T07:16:01.798Z,101253.81
2022-10-05T07:18:32.567Z,101251.84
2022-10-05T07:21:44.373Z,101237.94
2022-10-05T07:24:29.383Z,101236.34
2022-10-05T07:27:17.515Z,101233.16
2022-10-05T07:30:04.933Z,101226.03
2022-10-05T07:32:43.773Z,101243.16
2022-10-05T07:36:00.121Z,101237.97
2022-10-05T07:38:59.788Z,101224.44
2022-10-05T07:41:36.240Z,101233.97
2022-10-05T07:44:27.407Z,101241.16
2022-10-05T07:47:00.966Z,101227.59
2022-10-05T07:49:53.297Z,101230.81
2022-10-05T07:52:35.150Z,101228.78
2022-10-05T07:55:18.444Z,101227.16
2022-10-05T07:58:05.280Z,101223.59
2022-10-05T08:00:45.461Z,101219.59
2022-10-05T08:03:31.597Z,101221.97
2022-10-05T08:06:01.611Z,101217.22
2022-10-05T08:08:47.319Z,101233.59
2022-10-05T08:11:18.986Z,101220.47
2022-10-05T08:14:33.981Z,101227.66
2022-10-05T08:17:11.449Z,101232.06
2022-10-05T08:19:53.481Z,101215.34
2022-10-05T08:22:29.162Z,101210.50
2022-10-05T08:25:04.906Z,101200.94
2022-10-05T08:27:35.374Z,101215.66
2022-10-05T08:30:06.625Z,101212.09
2022-10-05T08:32:36.687Z,101206.94
2022-10-05T08:35:28.999Z,101196.97
2022-10-05T08:37:57.122Z,101198.94
2022-10-05T08:40:43.703Z,101192.94
2022-10-05T08:43:48.563Z,101200.94
2022-10-05T08:46:34.911Z,101189.84
2022-10-05T08:49:20.874Z,101182.25
2022-10-05T08:52:03.505Z,101185.06
2022-10-05T08:54:56.008Z,101184.66
2022-10-05T08:57:49.167Z,101183.81
2022-10-05T09:00:24.175Z,101168.25
2022-10-05T09:03:09.826Z,101187.78
2022-10-05T09:05:49.895Z,101180.63
2022-10-05T09:08:31.132Z,101185.84
2022-10-05T09:11:10.725Z,101186.25
2022-10-05T09:14:11.743Z,101171.91
2022-10-05T09:16:53.048Z,101167.94
2022-10-05T09:19:51.328Z,101159.56
2022-10-05T09:22:49.457Z,101182.25
2022-10-05T09:25:29.647Z,101185.44
2022-10-05T09:28:35.662Z,101182.25
2022-10-05T09:31:43.578Z,101181.06
2022-10-05T09:34:45.244Z,101182.25
2022-10-05T09:37:51.154Z,101185.41
2022-10-05T09:40:30.471Z,101192.56
2022-10-05T09:43:36.849Z,101189.28
2022-10-05T09:46:29.936Z,101200.38
2022-10-05T09:49:26.703Z,101193.69
2022-10-05T09:52:09.329Z,101190.88
2022-10-05T09:54:51.658Z,101195.97
2022-10-05T09:57:34.224Z,101193.88
2022-10-05T10:00:10.466Z,101195.41
2022-10-05T10:02:56.370Z,101183.81
2022-10-05T10:05:39.305Z,101189.75
2022-10-05T10:08:34.184Z,101194.25
2022-10-05T10:11:03.960Z,101177.81
2022-10-05T10:13:53.585Z,101172.69
2022-10-05T10:16:58.605Z,101179.84
2022-10-05T10:19:59.692Z,101184.25
2022-10-05T10:23:04.198Z,101182.59
2022-10-05T10:25:32.009Z,101183.00
2022-10-05T10:28:25.716Z,101175.75
2022-10-05T10:31:25.352Z,101188.91
2022-10-05T10:34:14.650Z,101178.22
2022-10-05T10:37:12.491Z,101178.16
2022-10-05T10:40:27.044Z,101171.78
2022-10-05T10:43:32.083Z,101159.94
2022-10-05T10:46:33.927Z,101167.16
2022-10-05T10:49:01.287Z,101168.28
2022-10-05T10:51:34.982Z,101164.34
2022-10-05T10:54:38.092Z,101186.34
2022-10-05T10:57:10.275Z,101170.84
2022-10-05T11:00:15.798Z,101178.88
2022-10-05T11:03:13.110Z,101182.84
2022-10-05T11:06:05.415Z,101193.69
2022-10-05T11:09:08.533Z,101189.28
2022-10-05T11:11:36.342Z,101184.13
2022-10-05T11:14:32.035Z,101192.50
2022-10-05T11:17:31.782Z,101187.66
2022-10-05T11:20:40.017Z,101186.91
2022-10-05T11:23:10.244Z,101191.69
2022-10-05T11:25:58.178Z,101192.47
2022-10-05T11:28:36.185Z,101190.84
2022-10-05T11:31:16.282Z,101190.50
2022-10-05T11:34:20.975Z,101192.47
2022-10-05T11:37:13.477Z,101187.28
2022-10-05T11:40:11.708Z,101193.31
2022-10-05T11:43:08.440Z,101183.34
2022-10-05T11:45:48.003Z,101178.97
2022-10-05T11:48:20.606Z,101180.53
2022-10-05T11:51:21.357Z,101175.38
2022-10-05T11:54:09.807Z,101167.84
2022-10-05T11:57:07.663Z,101173.41
2022-10-05T11:59:44.345Z,101167.00
2022-10-05T12:02:20.720Z,101161.84
2022-10-05T12:05:18.581Z,101158.66
2022-10-05T12:08:13.982Z,101163.47
2022-10-05T12:10:44.693Z,101160.69
2022-10-05T12:13:39.527Z,101153.47
2022-10-05T12:16:26.525Z,101154.28
2022-10-05T12:19:02.138Z,101153.50
2022-10-05T12:21:34.083Z,101145.53
2022-10-05T12:24:14.207Z,101135.94
2022-10-05T12:26:58.675Z,101132.34
2022-10-05T12:29:56.239Z,101134.69
2022-10-05T12:32:38.937Z,101131.16
2022-10-05T12:35:47.490Z,101120.75
2022-10-05T12:38:37.150Z,101125.50
2022-10-05T12:41:22.408Z,101118.75
2022-10-05T12:44:05.126Z,101120.72
2022-10-05T12:46:53.666Z,101117.56
2022-10-05T12:49:28.657Z,101115.94
2022-10-05T12:52:01.767Z,101107.91
2022-10-05T12:54:38.184Z,101104.28
2022-10-05T12:57:31.542Z,101095.06
2022-10-05T13:00:10.228Z,101087.06
2022-10-05T13:02:50.931Z,101077.09
2022-10-05T13:05:27.310Z,101085.50
2022-10-05T13:07:57.738Z,101068.31
2022-10-05T13:10:36.684Z,101079.47
2022-10-05T13:13:23.668Z,101063.88
2022-10-05T13:16:03.330Z,101073.78
2022-10-05T13:18:45.385Z,101069.47
2022-10-05T13:21:19.652Z,101072.16
2022-10-05T13:23:47.092Z,101068.94
2022-10-05T13:26:19.366Z,101060.50
2022-10-05T13:29:05.714Z,101051.66
2022-10-05T13:31:41.015Z,101053.63
2022-10-05T13:34:14.214Z,101056.84
2022-10-05T13:36:41.717Z,101042.47
2022-10-05T13:39:32.902Z,101055.66
2022-10-05T13:42:15.525Z,101035.72
2022-10-05T13:44:53.953Z,101048.41
2022-10-05T13:48:00.369Z,101039.56
2022-10-05T13:50:35.141Z,101049.59
2022-10-05T13:53:15.057Z,101063.06
2022-10-05T13:55:57.624Z,101075.75
2022-10-05T13:58:33.049Z,101052.66
2022-10-05T14:01:06.694Z,101057.00
2022-10-05T14:03:38.582Z,101043.53
2022-10-05T14:06:14.041Z,101050.28
2022-10-05T14:09:12.741Z,101041.56
2022-10-05T14:11:51.111Z,101052.50
2022-10-05T14:14:28.984Z,101055.72
2022-10-05T14:16:59.574Z,101059.72
2022-10-05T14:19:32.349Z,101060.94
2022-10-05T14:22:00.538Z,101053.38
2022-10-05T14:24:44.557Z,101059.81
2022-10-05T14:27:30.151Z,101065.13
2022-10-05T14:30:09.900Z,101055.97
2022-10-05T14:32:56.263Z,101058.41
2022-10-05T14:35:28.355Z,101059.59
2022-10-05T14:38:00.547Z,101041.66
2022-10-05T14:40:34.522Z,101054.44
2022-10-05T14:43:16.483Z,101044.09
2022-10-05T14:46:02.894Z,101039.66
2022-10-05T14:48:44.264Z,101035.69
2022-10-05T14:51:25.197Z,101040.47
2022-10-05T14:54:15.038Z,101045.63
2022-10-05T14:57:05.049Z,101048.03
2022-10-05T14:59:41.327Z,101042.47
2022-10-05T15:02:48.080Z,101037.69
2022-10-05T15:05:46.070Z,101032.09
2022-10-05T15:08:51.000Z,101035.28
2022-10-05T15:11:28.323Z,101042.81
2022-10-05T15:13:56.680Z,101056.03
2022-10-05T15:16:31.266Z,101044.88
2022-10-05T15:19:20.999Z,101047.25
2022-10-05T15:22:09.916Z,101038.47
2022-10-05T15:24:52.620Z,101054.81
2022-10-05T15:27:49.449Z,101042.47
2022-10-05T15:30:18.551Z,101049.66
2022-10-05T15:33:05.357Z,101051.28
2022-10-05T15:35:45.050Z,101051.28
2022-10-05T15:38:25.619Z,101047.31
2022-10-05T15:41:24.619Z,101043.72
2022-10-05T15:44:06.423Z,101030.19
2022-10-05T15:46:36.775Z,101034.16
2022-10-05T15:49:22.933Z,101041.38
2022-10-05T15:52:28.801Z,101039.38
2022-10-05T15:55:17.747Z,101049.34
2022-10-05T15:58:08.589Z,101046.97
2022-10-05T16:00:43.509Z,101043.00
2022-10-05T16:03:51.473Z,101042.97
2022-10-05T16:07:04.111Z,101048.97
2022-10-05T16:09:41.253Z,101053.75
2022-10-05T16:12:09.803Z,101039.41
2022-10-05T16:14:46.345Z,101032.66
2022-10-05T16:17:35.205Z,101042.19
2022-10-05T16:20:08.754Z,101051.78
2022-10-05T16:22:45.040Z,101035.44
2022-10-05T16:25:55.626Z,101036.63
2022-10-05T16:28:49.862Z,101037.44
2022-10-05T16:31:48.343Z,101025.91
2022-10-05T16:34:27.978Z,101031.06
2022-10-05T16:37:28.952Z,101041.84
2022-10-05T16:40:03.530Z,101034.28
2022-10-05T16:43:02.838Z,101037.44
2022-10-05T16:45:58.433Z,101042.66
2022-10-05T16:48:40.261Z,101038.25
2022-10-05T16:51:20.702Z,101039.47
2022-10-05T16:53:59.291Z,101041.09
2022-10-05T16:56:34.415Z,101048.66
2022-10-05T16:59:26.687Z,101051.03
2022-10-05T17:02:23.509Z,101051.47
2022-10-05T17:05:32.884Z,101053.00
2022-10-05T17:08:26.448Z,101048.25
2022-10-05T17:11:34.084Z,101034.28
2022-10-05T17:14:39.311Z,101045.06
2022-10-05T17:17:21.859Z,101040.66
2022-10-05T17:20:13.989Z,101045.06
2022-10-05T17:22:52.524Z,101054.63
2022-10-05T17:25:40.675Z,101049.03
2022-10-05T17:28:38.043Z,101046.25
2022-10-05T17:31:12.727Z,101047.44
2022-10-05T17:33:59.234Z,101055.81
2022-10-05T17:36:54.309Z,101059.03
2022-10-05T17:39:24.018Z,101049.09
2022-10-05T17:41:54.062Z,101049.09
2022-10-05T17:44:25.030Z,101052.28
2022-10-05T17:46:54.111Z,101056.25
2022-10-05T17:50:18.252Z,101060.22
2022-10-05T17:53:49.559Z,101060.22
2022-10-05T17:56:17.629Z,101061.81
2022-10-05T17:58:44.995Z,101077.78
2022-10-05T18:01:35.576Z,101076.22
2022-10-05T18:04:13.532Z,101065.47
2022-10-05T18:07:00.179Z,101068.66
2022-10-05T18:09:33.539Z,101076.63
2022-10-05T18:12:15.490Z,101068.22
2022-10-05T18:14:57.421Z,101077.00
2022-10-05T18:17:46.614Z,101079.38
2022-10-05T18:20:19.340Z,101070.63
2022-10-05T18:22:50.933Z,101084.97
2022-10-05T18:25:40.162Z,101071.50
2022-10-05T18:28:31.002Z,101066.72
2022-10-05T18:31:31.105Z,101075.50
2022-10-05T18:34:27.379Z,101071.13
2022-10-05T18:36:57.594Z,101076.69
2022-10-05T18:39:46.231Z,101087.84
2022-10-05T18:42:27.351Z,101077.09
2022-10-05T18:45:22.441Z,101089.84
2022-10-05T18:48:12.932Z,101099.38
2022-10-05T18:50:46.573Z,101134.44
2022-10-05T18:53:25.955Z,101119.31
2022-10-05T18:55:59.264Z,101156.69
2022-10-05T18:58:41.718Z,101186.91
2022-10-05T19:01:18.519Z,101205.22
2022-10-05T19:03:47.249Z,101226.28
2022-10-05T19:06:25.308Z,101224.69
2022-10-05T19:09:20.688Z,101224.25
2022-10-05T19:12:04.901Z,101221.03
2022-10-05T19:14:47.124Z,101219.81
2022-10-05T19:17:27.383Z,101233.25
2022-10-05T19:20:04.031Z,101241.22
2022-10-05T19:22:53.870Z,101252.75
2022-10-05T19:25:47.709Z,101258.28
2022-10-05T19:28:28.599Z,101273.00
2022-10-05T19:31:22.578Z,101274.09
2022-10-05T19:34:16.632Z,101285.25
2022-10-05T19:37:01.319Z,101289.56
2022-10-05T19:39:44.848Z,101305.47
2022-10-05T19:42:37.249Z,101311.78
2022-10-05T19:45:24.176Z,101303.00
2022-10-05T19:48:09.008Z,101310.56
2022-10-05T19:50:40.621Z,101322.47
2022-10-05T19:53:22.618Z,101320.84
2022-10-05T19:55:50.398Z,101315.69
2022-10-05T19:58:19.348Z,101312.09
2022-10-05T20:01:01.451Z,101313.28
2022-10-05T20:03:30.922Z,101323.19
2022-10-05T20:06:01.099Z,101329.53
2022-10-05T20:08:39.494Z,101329.47
2022-10-05T20:11:15.886Z,101354.50
2022-10-05T20:13:46.565Z,101362.44
2022-10-05T20:19:55.329Z,101369.16
2022-10-05T20:22:22.693Z,101379.50
2022-10-05T20:24:51.487Z,101389.81
2022-10-05T20:27:41.570Z,101395.34
2022-10-05T20:30:11.266Z,101406.88
2022-10-05T20:32:38.699Z,101416.41
2022-10-05T20:35:07.127Z,101427.91
2022-10-05T20:37:34.939Z,101414.41
2022-10-05T20:40:03.134Z,101425.94
2022-10-05T20:42:30.987Z,101438.22
2022-10-05T20:44:58.860Z,101428.31
2022-10-05T20:47:27.020Z,101439.44
2022-10-05T20:49:54.835Z,101445.75
2022-10-05T20:52:23.189Z,101450.56
2022-10-05T20:54:53.936Z,101460.47
2022-10-05T20:57:24.205Z,101453.34
2022-10-05T20:59:53.401Z,101470.03
2022-10-05T21:02:20.872Z,101472.81
2022-10-05T21:04:49.211Z,101464.81
2022-10-05T21:07:19.019Z,101476.75
2022-10-05T21:09:46.977Z,101485.09
2022-10-05T21:12:16.474Z,101489.50
2022-10-05T21:14:44.034Z,101498.25
2022-10-05T21:17:12.641Z,101502.63
2022-10-05T21:19:40.954Z,101505.38
2022-10-05T21:22:10.057Z,101508.09
2022-10-05T21:24:39.648Z,101507.16
2022-10-05T21:27:07.705Z,101511.00
2022-10-05T21:29:37.116Z,101509.75
2022-10-05T21:32:08.809Z,101515.31
2022-10-05T21:34:36.408Z,101519.22
2022-10-05T21:37:04.396Z,101517.09
2022-10-05T21:39:33.723Z,101521.72
2022-10-05T21:42:01.620Z,101522.34
2022-10-05T21:44:29.053Z,101531.31
2022-10-05T21:46:56.889Z,101529.25
2022-10-05T21:49:25.392Z,101539.06
2022-10-05T21:51:53.114Z,101528.66
2022-10-05T21:54:22.499Z,101527.03
2022-10-05T21:56:53.663Z,101527.84
2022-10-05T21:59:24.427Z,101524.16
2022-10-05T22:01:52.388Z,101527.16
2022-10-05T22:04:20.287Z,101528.28
2022-10-05T22:06:49.022Z,101534.16
2022-10-05T22:09:16.445Z,101547.50
2022-10-05T22:11:47.751Z,101553.75
2022-10-05T22:14:16.036Z,101553.19
2022-10-05T22:16:44.758Z,101568.16
2022-10-05T22:19:18.645Z,101570.00
2022-10-05T22:21:46.106Z,101566.31
2022-10-05T22:24:13.604Z,101569.91
2022-10-05T22:26:43.786Z,101572.28
2022-10-05T22:29:11.653Z,101565.59
2022-10-05T22:31:39.299Z,101579.56
2022-10-05T22:34:07.061Z,101579.00
2022-10-05T22:36:35.836Z,101574.19
2022-10-05T22:39:03.794Z,101580.72
2022-10-05T22:41:31.225Z,101604.13
2022-10-05T22:43:59.357Z,101597.63
2022-10-05T22:46:26.986Z,101601.44
2022-10-05T22:48:54.472Z,101614.34
2022-10-05T22:51:21.974Z,101623.88
2022-10-05T22:53:49.397Z,101617.53
2022-10-05T22:56:17.143Z,101617.06
2022-10-05T22:58:45.166Z,101621.84
2022-10-05T23:01:15.694Z,101629.69
2022-10-05T23:03:43.832Z,101634.41
2022-10-05T23:06:14.126Z,101637.81
2022-10-05T23:08:42.565Z,101642.75
2022-10-05T23:11:13.127Z,101649.38
2022-10-05T23:13:41.159Z,101649.38
2022-10-05T23:16:11.842Z,101650.56
2022-10-05T23:18:40.129Z,101650.56
2022-10-05T23:21:08.848Z,101656.84
2022-10-05T23:23:41.536Z,101663.03
2022-10-05T23:26:10.901Z,101670.47
2022-10-05T23:28:46.258Z,101676.38
2022-10-05T23:31:16.482Z,101679.41
2022-10-05T23:33:44.564Z,101681.75
2022-10-05T23:36:16.998Z,101676.66
2022-10-05T23:38:45.398Z,101682.03
2022-10-05T23:41:13.198Z,101686.56
2022-10-05T23:43:40.787Z,101700.00
2022-10-05T23:46:09.756Z,101701.66
2022-10-05T23:48:40.306Z,101706.09
2022-10-05T23:51:11.201Z,101711.22
2022-10-05T23:53:38.565Z,101718.06
2022-10-05T23:56:06.347Z,101730.97
2022-10-05T23:58:33.859Z,101735.13
